sensor_id;sensor_type;location;lat;lon;timestamp;pressure;altitude;pressure_sealevel;temperature;humidity
14253;BME280;7210;51.502;10.722;2023-03-12T00:01:16;99348.34;;;-3.39;100.00
14253;BME280;7210;51.502;10.722;2023-03-12T00:03:45;99352.94;;;-3.33;100.00
14253;BME280;7210;51.502;10.722;2023-03-12T00:06:13;99344.38;;;-3.34;100.00
14253;BME280;7210;51.502;10.722;2023-03-12T00:08:41;99340.59;;;-3.39;100.00
14253;BME280;7210;51.502;10.722;2023-03-12T00:11:11;99342.13;;;-3.46;100.00
14253;BME280;7210;51.502;10.722;2023-03-12T00:13:39;99341.91;;;-3.53;100.00
14253;BME280;7210;51.502;10.722;2023-03-12T00:16:08;99337.19;;;-3.57;100.00
14253;BME280;7210;51.502;10.722;2023-03-12T00:18:36;99345.88;;;-3.58;100.00
14253;BME280;7210;51.502;10.722;2023-03-12T00:21:05;99341.94;;;-3.62;100.00
14253;BME280;7210;51.502;10.722;2023-03-12T00:23:33;99348.75;;;-3.61;100.00
14253;BME280;7210;51.502;10.722;2023-03-12T00:26:04;99342.91;;;-3.63;100.00
14253;BME280;7210;51.502;10.722;2023-03-12T00:28:32;99350.97;;;-3.66;100.00
14253;BME280;7210;51.502;10.722;2023-03-12T00:31:00;99349.34;;;-3.67;100.00
14253;BME280;7210;51.502;10.722;2023-03-12T00:33:28;99345.28;;;-3.69;100.00
14253;BME280;7210;51.502;10.722;2023-03-12T00:35:58;99352.59;;;-3.65;100.00
14253;BME280;7210;51.502;10.722;2023-03-12T00:38:27;99345.78;;;-3.66;100.00
14253;BME280;7210;51.502;10.722;2023-03-12T00:40:54;99351.53;;;-3.72;100.00
14253;BME280;7210;51.502;10.722;2023-03-12T00:43:23;99339.03;;;-3.76;100.00
14253;BME280;7210;51.502;10.722;2023-03-12T00:45:50;99338.50;;;-3.80;100.00
14253;BME280;7210;51.502;10.722;2023-03-12T00:48:17;99347.75;;;-3.77;100.00
14253;BME280;7210;51.502;10.722;2023-03-12T00:50:44;99341.94;;;-3.79;100.00
14253;BME280;7210;51.502;10.722;2023-03-12T00:53:12;99339.59;;;-3.82;100.00
14253;BME280;7210;51.502;10.722;2023-03-12T00:55:39;99320.91;;;-3.94;100.00
14253;BME280;7210;51.502;10.722;2023-03-12T00:58:06;99326.84;;;-3.84;100.00
14253;BME280;7210;51.502;10.722;2023-03-12T01:00:35;99325.50;;;-3.88;100.00
14253;BME280;7210;51.502;10.722;2023-03-12T01:03:02;99318.72;;;-3.89;100.00
14253;BME280;7210;51.502;10.722;2023-03-12T01:05:29;99320.66;;;-3.91;100.00
14253;BME280;7210;51.502;10.722;2023-03-12T01:08:03;99319.94;;;-3.93;100.00
14253;BME280;7210;51.502;10.722;2023-03-12T01:10:30;99322.94;;;-3.88;100.00
14253;BME280;7210;51.502;10.722;2023-03-12T01:12:58;99325.22;;;-3.85;100.00
14253;BME280;7210;51.502;10.722;2023-03-12T01:15:27;99328.50;;;-3.83;100.00
14253;BME280;7210;51.502;10.722;2023-03-12T01:17:55;99321.66;;;-3.84;100.00
14253;BME280;7210;51.502;10.722;2023-03-12T01:20:23;99318.16;;;-3.83;100.00
14253;BME280;7210;51.502;10.722;2023-03-12T01:22:50;99316.81;;;-3.87;100.00
14253;BME280;7210;51.502;10.722;2023-03-12T01:25:18;99314.34;;;-3.88;100.00
14253;BME280;7210;51.502;10.722;2023-03-12T01:27:45;99313.84;;;-3.92;100.00
14253;BME280;7210;51.502;10.722;2023-03-12T01:30:13;99306.00;;;-4.00;100.00
14253;BME280;7210;51.502;10.722;2023-03-12T01:32:40;99303.41;;;-4.00;100.00
14253;BME280;7210;51.502;10.722;2023-03-12T01:35:09;99308.72;;;-4.01;100.00
14253;BME280;7210;51.502;10.722;2023-03-12T01:37:36;99297.88;;;-4.05;100.00
14253;BME280;7210;51.502;10.722;2023-03-12T01:40:05;99303.31;;;-4.08;100.00
14253;BME280;7210;51.502;10.722;2023-03-12T01:42:32;99299.75;;;-4.07;100.00
14253;BME280;7210;51.502;10.722;2023-03-12T01:45:02;99304.94;;;-4.07;100.00
14253;BME280;7210;51.502;10.722;2023-03-12T01:47:31;99295.44;;;-4.06;100.00
14253;BME280;7210;51.502;10.722;2023-03-12T01:50:03;99296.38;;;-4.07;100.00
14253;BME280;7210;51.502;10.722;2023-03-12T01:52:35;99288.66;;;-4.07;100.00
14253;BME280;7210;51.502;10.722;2023-03-12T01:55:08;99288.88;;;-4.01;100.00
14253;BME280;7210;51.502;10.722;2023-03-12T01:57:44;99295.66;;;-4.00;100.00
14253;BME280;7210;51.502;10.722;2023-03-12T02:00:16;99296.19;;;-3.96;100.00
14253;BME280;7210;51.502;10.722;2023-03-12T02:02:46;99297.31;;;-3.99;100.00
14253;BME280;7210;51.502;10.722;2023-03-12T02:05:24;99290.81;;;-4.03;100.00
14253;BME280;7210;51.502;10.722;2023-03-12T02:07:55;99288.88;;;-4.01;100.00
14253;BME280;7210;51.502;10.722;2023-03-12T02:13:14;99280.78;;;-4.06;100.00
14253;BME280;7210;51.502;10.722;2023-03-12T02:15:44;99271.03;;;-4.12;100.00
14253;BME280;7210;51.502;10.722;2023-03-12T02:18:17;99270.75;;;-4.18;100.00
14253;BME280;7210;51.502;10.722;2023-03-12T02:20:52;99269.81;;;-4.17;100.00
14253;BME280;7210;51.502;10.722;2023-03-12T02:23:31;99271.88;;;-4.21;100.00
14253;BME280;7210;51.502;10.722;2023-03-12T02:26:04;99271.34;;;-4.24;100.00
14253;BME280;7210;51.502;10.722;2023-03-12T02:28:35;99266.19;;;-4.24;100.00
14253;BME280;7210;51.502;10.722;2023-03-12T02:31:12;99270.50;;;-4.25;100.00
14253;BME280;7210;51.502;10.722;2023-03-12T02:33:41;99274.59;;;-4.22;100.00
14253;BME280;7210;51.502;10.722;2023-03-12T02:36:08;99272.13;;;-4.24;100.00
14253;BME280;7210;51.502;10.722;2023-03-12T02:38:43;99268.22;;;-4.28;100.00
14253;BME280;7210;51.502;10.722;2023-03-12T02:41:16;99264.28;;;-4.32;100.00
14253;BME280;7210;51.502;10.722;2023-03-12T02:43:49;99265.91;;;-4.31;100.00
14253;BME280;7210;51.502;10.722;2023-03-12T02:46:18;99272.03;;;-4.32;100.00
14253;BME280;7210;51.502;10.722;2023-03-12T02:48:46;99262.69;;;-4.33;100.00
14253;BME280;7210;51.502;10.722;2023-03-12T02:51:13;99271.66;;;-4.37;100.00
14253;BME280;7210;51.502;10.722;2023-03-12T02:53:41;99268.38;;;-4.39;100.00
14253;BME280;7210;51.502;10.722;2023-03-12T02:56:08;99268.38;;;-4.39;100.00
14253;BME280;7210;51.502;10.722;2023-03-12T02:58:36;99273.41;;;-4.37;100.00
14253;BME280;7210;51.502;10.722;2023-03-12T03:01:04;99263.94;;;-4.37;100.00
14253;BME280;7210;51.502;10.722;2023-03-12T03:03:31;99275.16;;;-4.38;100.00
14253;BME280;7210;51.502;10.722;2023-03-12T03:05:58;99268.38;;;-4.39;100.00
14253;BME280;7210;51.502;10.722;2023-03-12T03:08:26;99264.06;;;-4.38;100.00
14253;BME280;7210;51.502;10.722;2023-03-12T03:10:53;99263.09;;;-4.37;100.00
14253;BME280;7210;51.502;10.722;2023-03-12T03:13:20;99267.84;;;-4.33;100.00
14253;BME280;7210;51.502;10.722;2023-03-12T03:15:49;99265.13;;;-4.31;100.00
14253;BME280;7210;51.502;10.722;2023-03-12T03:18:16;99277.59;;;-4.27;100.00
14253;BME280;7210;51.502;10.722;2023-03-12T03:20:43;99278.66;;;-4.20;100.00
14253;BME280;7210;51.502;10.722;2023-03-12T03:23:10;99269.13;;;-4.19;100.00
14253;BME280;7210;51.502;10.722;2023-03-12T03:25:38;99268.69;;;-4.15;100.00
14253;BME280;7210;51.502;10.722;2023-03-12T03:28:05;99272.63;;;-4.11;100.00
14253;BME280;7210;51.502;10.722;2023-03-12T03:30:32;99269.75;;;-4.08;100.00
14253;BME280;7210;51.502;10.722;2023-03-12T03:33:04;99269.50;;;-4.05;100.00
14253;BME280;7210;51.502;10.722;2023-03-12T03:35:33;99268.53;;;-4.04;100.00
14253;BME280;7210;51.502;10.722;2023-03-12T03:38:00;99274.09;;;-3.99;100.00
14253;BME280;7210;51.502;10.722;2023-03-12T03:40:28;99274.59;;;-3.95;100.00
14253;BME280;7210;51.502;10.722;2023-03-12T03:42:55;99274.44;;;-3.94;100.00
14253;BME280;7210;51.502;10.722;2023-03-12T03:45:22;99272.53;;;-3.92;100.00
14253;BME280;7210;51.502;10.722;2023-03-12T03:47:50;99272.78;;;-3.85;100.00
14253;BME280;7210;51.502;10.722;2023-03-12T03:50:18;99275.91;;;-3.82;100.00
14253;BME280;7210;51.502;10.722;2023-03-12T03:52:46;99271.41;;;-3.80;100.00
14253;BME280;7210;51.502;10.722;2023-03-12T03:55:13;99274.13;;;-3.81;100.00
14253;BME280;7210;51.502;10.722;2023-03-12T03:57:40;99274.94;;;-3.81;100.00
14253;BME280;7210;51.502;10.722;2023-03-12T04:00:10;99270.44;;;-3.79;100.00
14253;BME280;7210;51.502;10.722;2023-03-12T04:02:41;99278.56;;;-3.74;100.00
14253;BME280;7210;51.502;10.722;2023-03-12T04:05:10;99258.34;;;-3.78;100.00
14253;BME280;7210;51.502;10.722;2023-03-12T04:07:40;99285.84;;;-3.60;100.00
14253;BME280;7210;51.502;10.722;2023-03-12T04:10:09;99289.16;;;-3.50;100.00
14253;BME280;7210;51.502;10.722;2023-03-12T04:12:37;99288.81;;;-3.38;100.00
14253;BME280;7210;51.502;10.722;2023-03-12T04:15:05;99277.38;;;-3.35;100.00
14253;BME280;7210;51.502;10.722;2023-03-12T04:17:33;99276.78;;;-3.29;100.00
14253;BME280;7210;51.502;10.722;2023-03-12T04:20:01;99267.03;;;-3.35;100.00
14253;BME280;7210;51.502;10.722;2023-03-12T04:22:33;99262.44;;;-3.41;100.00
14253;BME280;7210;51.502;10.722;2023-03-12T04:25:02;99256.91;;;-3.46;100.00
14253;BME280;7210;51.502;10.722;2023-03-12T04:27:30;99254.63;;;-3.49;100.00
14253;BME280;7210;51.502;10.722;2023-03-12T04:29:57;99242.94;;;-3.53;100.00
14253;BME280;7210;51.502;10.722;2023-03-12T04:32:24;99246.78;;;-3.57;100.00
14253;BME280;7210;51.502;10.722;2023-03-12T04:34:52;99240.28;;;-3.61;100.00
14253;BME280;7210;51.502;10.722;2023-03-12T04:37:19;99237.03;;;-3.63;100.00
14253;BME280;7210;51.502;10.722;2023-03-12T04:39:47;99232.00;;;-3.65;100.00
14253;BME280;7210;51.502;10.722;2023-03-12T04:42:16;99230.56;;;-3.67;100.00
14253;BME280;7210;51.502;10.722;2023-03-12T04:44:45;99223.09;;;-3.70;100.00
14253;BME280;7210;51.502;10.722;2023-03-12T04:47:12;99217.56;;;-3.75;100.00
14253;BME280;7210;51.502;10.722;2023-03-12T04:49:39;99212.03;;;-3.80;100.00
14253;BME280;7210;51.502;10.722;2023-03-12T04:52:07;99216.81;;;-3.85;100.00
14253;BME280;7210;51.502;10.722;2023-03-12T04:54:34;99207.09;;;-3.91;100.00
14253;BME280;7210;51.502;10.722;2023-03-12T04:57:02;99215.22;;;-3.95;100.00
14253;BME280;7210;51.502;10.722;2023-03-12T04:59:31;99212.81;;;-3.97;100.00
14253;BME280;7210;51.502;10.722;2023-03-12T05:01:59;99216.88;;;-3.94;100.00
14253;BME280;7210;51.502;10.722;2023-03-12T05:04:33;99214.97;;;-3.92;100.00
14253;BME280;7210;51.502;10.722;2023-03-12T05:07:00;99219.59;;;-3.96;100.00
14253;BME280;7210;51.502;10.722;2023-03-12T05:09:28;99218.25;;;-4.00;100.00
14253;BME280;7210;51.502;10.722;2023-03-12T05:11:55;99213.09;;;-4.00;100.00
14253;BME280;7210;51.502;10.722;2023-03-12T05:14:22;99197.16;;;-4.13;100.00
14253;BME280;7210;51.502;10.722;2023-03-12T05:16:51;99222.47;;;-3.99;100.00
14253;BME280;7210;51.502;10.722;2023-03-12T05:19:18;99225.84;;;-3.98;100.00
14253;BME280;7210;51.502;10.722;2023-03-12T05:21:45;99221.78;;;-4.01;100.00
14253;BME280;7210;51.502;10.722;2023-03-12T05:24:14;99217.44;;;-4.00;100.00
14253;BME280;7210;51.502;10.722;2023-03-12T05:26:42;99217.31;;;-3.99;100.00
14253;BME280;7210;51.502;10.722;2023-03-12T05:29:13;99215.75;;;-3.92;100.00
14253;BME280;7210;51.502;10.722;2023-03-12T05:31:42;99223.59;;;-3.84;100.00
14253;BME280;7210;51.502;10.722;2023-03-12T05:34:23;99205.16;;;-3.89;100.00
14253;BME280;7210;51.502;10.722;2023-03-12T05:36:51;99227.59;;;-3.72;100.00
14253;BME280;7210;51.502;10.722;2023-03-12T05:39:23;99225.41;;;-3.67;100.00
14253;BME280;7210;51.502;10.722;2023-03-12T05:41:50;99228.84;;;-3.59;100.00
14253;BME280;7210;51.502;10.722;2023-03-12T05:44:19;99224.22;;;-3.55;100.00
14253;BME280;7210;51.502;10.722;2023-03-12T05:46:51;99226.66;;;-3.54;100.00
14253;BME280;7210;51.502;10.722;2023-03-12T05:49:19;99229.09;;;-3.52;100.00
14253;BME280;7210;51.502;10.722;2023-03-12T05:51:48;99228.34;;;-3.45;100.00
14253;BME280;7210;51.502;10.722;2023-03-12T05:54:18;99229.25;;;-3.36;100.00
14253;BME280;7210;51.502;10.722;2023-03-12T05:56:48;99230.28;;;-3.29;100.00
14253;BME280;7210;51.502;10.722;2023-03-12T05:59:16;99228.88;;;-3.24;100.00
14253;BME280;7210;51.502;10.722;2023-03-12T06:01:43;99231.53;;;-3.16;100.00
14253;BME280;7210;51.502;10.722;2023-03-12T06:04:11;99224.94;;;-3.10;100.00
14253;BME280;7210;51.502;10.722;2023-03-12T06:06:38;99219.69;;;-3.01;100.00
14253;BME280;7210;51.502;10.722;2023-03-12T06:09:07;99217.44;;;-2.96;100.00
14253;BME280;7210;51.502;10.722;2023-03-12T06:11:34;99221.03;;;-2.89;100.00
14253;BME280;7210;51.502;10.722;2023-03-12T06:14:02;99222.22;;;-2.83;100.00
14253;BME280;7210;51.502;10.722;2023-03-12T06:16:29;99230.03;;;-2.75;100.00
14253;BME280;7210;51.502;10.722;2023-03-12T06:18:59;99224.94;;;-2.67;100.00
14253;BME280;7210;51.502;10.722;2023-03-12T06:21:30;99229.19;;;-2.58;100.00
14253;BME280;7210;51.502;10.722;2023-03-12T06:24:00;99234.69;;;-2.53;100.00
14253;BME280;7210;51.502;10.722;2023-03-12T06:26:34;99236.53;;;-2.46;100.00
14253;BME280;7210;51.502;10.722;2023-03-12T06:29:01;99225.06;;;-2.43;100.00
14253;BME280;7210;51.502;10.722;2023-03-12T06:31:28;99228.00;;;-2.30;100.00
14253;BME280;7210;51.502;10.722;2023-03-12T06:33:55;99229.34;;;-2.26;100.00
14253;BME280;7210;51.502;10.722;2023-03-12T06:36:22;99220.00;;;-2.19;100.00
14253;BME280;7210;51.502;10.722;2023-03-12T06:38:50;99211.91;;;-2.16;100.00
14253;BME280;7210;51.502;10.722;2023-03-12T06:41:19;99210.69;;;-2.04;100.00
14253;BME280;7210;51.502;10.722;2023-03-12T06:43:48;99210.69;;;-1.96;100.00
14253;BME280;7210;51.502;10.722;2023-03-12T06:46:18;99198.41;;;-1.94;100.00
14253;BME280;7210;51.502;10.722;2023-03-12T06:48:47;99195.19;;;-1.88;100.00
14253;BME280;7210;51.502;10.722;2023-03-12T06:51:16;99195.03;;;-1.79;100.00
14253;BME280;7210;51.502;10.722;2023-03-12T06:53:44;99193.13;;;-1.77;100.00
14253;BME280;7210;51.502;10.722;2023-03-12T06:56:15;99168.97;;;-1.77;100.00
14253;BME280;7210;51.502;10.722;2023-03-12T06:58:43;99180.97;;;-1.60;100.00
14253;BME280;7210;51.502;10.722;2023-03-12T07:01:12;99177.41;;;-1.51;100.00
14253;BME280;7210;51.502;10.722;2023-03-12T07:03:39;99165.13;;;-1.49;100.00
14253;BME280;7210;51.502;10.722;2023-03-12T07:06:13;99165.44;;;-1.36;100.00
14253;BME280;7210;51.502;10.722;2023-03-12T07:08:41;99162.53;;;-1.25;100.00
14253;BME280;7210;51.502;10.722;2023-03-12T07:11:09;99147.28;;;-1.12;100.00
14253;BME280;7210;51.502;10.722;2023-03-12T07:13:36;99152.78;;;-0.99;100.00
14253;BME280;7210;51.502;10.722;2023-03-12T07:16:04;99149.03;;;-0.89;100.00
14253;BME280;7210;51.502;10.722;2023-03-12T07:18:33;99151.63;;;-0.81;100.00
14253;BME280;7210;51.502;10.722;2023-03-12T07:21:02;99126.81;;;-0.83;100.00
14253;BME280;7210;51.502;10.722;2023-03-12T07:23:32;99132.28;;;-0.70;100.00
14253;BME280;7210;51.502;10.722;2023-03-12T07:26:00;99127.25;;;-0.64;100.00
14253;BME280;7210;51.502;10.722;2023-03-12T07:28:29;99120.72;;;-0.52;100.00
14253;BME280;7210;51.502;10.722;2023-03-12T07:31:00;99108.19;;;-0.40;100.00
14253;BME280;7210;51.502;10.722;2023-03-12T07:33:27;99091.00;;;-0.41;100.00
14253;BME280;7210;51.502;10.722;2023-03-12T07:35:55;99086.75;;;-0.34;100.00
14253;BME280;7210;51.502;10.722;2023-03-12T07:38:23;99087.91;;;-0.14;100.00
14253;BME280;7210;51.502;10.722;2023-03-12T07:40:51;99079.59;;;-0.10;100.00
14253;BME280;7210;51.502;10.722;2023-03-12T07:43:19;99074.72;;;-0.05;100.00
14253;BME280;7210;51.502;10.722;2023-03-12T07:45:46;99073.50;;;0.05;100.00
14253;BME280;7210;51.502;10.722;2023-03-12T07:48:15;99069.88;;;0.14;100.00
14253;BME280;7210;51.502;10.722;2023-03-12T07:50:45;99058.84;;;0.12;100.00
14253;BME280;7210;51.502;10.722;2023-03-12T07:53:15;99058.13;;;0.18;100.00
14253;BME280;7210;51.502;10.722;2023-03-12T07:55:45;99060.66;;;0.26;100.00
14253;BME280;7210;51.502;10.722;2023-03-12T07:58:17;99051.38;;;0.32;100.00
14253;BME280;7210;51.502;10.722;2023-03-12T08:00:44;99048.81;;;0.46;100.00
14253;BME280;7210;51.502;10.722;2023-03-12T08:03:12;99030.44;;;0.62;100.00
14253;BME280;7210;51.502;10.722;2023-03-12T08:05:39;99031.34;;;0.69;100.00
14253;BME280;7210;51.502;10.722;2023-03-12T08:08:07;99037.38;;;0.84;100.00
14253;BME280;7210;51.502;10.722;2023-03-12T08:10:36;99040.88;;;0.91;100.00
14253;BME280;7210;51.502;10.722;2023-03-12T08:13:03;99034.97;;;0.97;100.00
14253;BME280;7210;51.502;10.722;2023-03-12T08:15:30;99028.13;;;0.96;100.00
14253;BME280;7210;51.502;10.722;2023-03-12T08:17:58;99017.91;;;0.95;100.00
14253;BME280;7210;51.502;10.722;2023-03-12T08:20:27;99010.91;;;0.95;100.00
14253;BME280;7210;51.502;10.722;2023-03-12T08:22:54;99026.69;;;1.08;100.00
14253;BME280;7210;51.502;10.722;2023-03-12T08:25:21;99035.94;;;1.25;100.00
14253;BME280;7210;51.502;10.722;2023-03-12T08:27:51;99039.59;;;1.45;100.00
14253;BME280;7210;51.502;10.722;2023-03-12T08:30:18;99028.41;;;1.66;100.00
14253;BME280;7210;51.502;10.722;2023-03-12T08:32:45;99024.75;;;1.81;100.00
14253;BME280;7210;51.502;10.722;2023-03-12T08:35:15;99017.38;;;1.85;100.00
14253;BME280;7210;51.502;10.722;2023-03-12T08:37:42;99002.16;;;1.88;100.00
14253;BME280;7210;51.502;10.722;2023-03-12T08:40:11;99003.44;;;1.92;100.00
14253;BME280;7210;51.502;10.722;2023-03-12T08:42:38;99013.19;;;2.32;100.00
14253;BME280;7210;51.502;10.722;2023-03-12T08:45:09;98987.94;;;2.33;100.00
14253;BME280;7210;51.502;10.722;2023-03-12T08:47:36;98974.69;;;2.34;100.00
14253;BME280;7210;51.502;10.722;2023-03-12T08:50:08;98953.25;;;2.39;99.17
14253;BME280;7210;51.502;10.722;2023-03-12T08:52:36;98951.06;;;2.42;98.93
14253;BME280;7210;51.502;10.722;2023-03-12T08:55:04;98964.03;;;2.57;98.43
14253;BME280;7210;51.502;10.722;2023-03-12T08:57:31;98963.31;;;2.69;98.01
14253;BME280;7210;51.502;10.722;2023-03-12T08:59:58;98974.72;;;3.02;97.76
14253;BME280;7210;51.502;10.722;2023-03-12T09:02:27;98946.59;;;3.04;97.00
14253;BME280;7210;51.502;10.722;2023-03-12T09:04:54;98929.72;;;3.00;96.30
14253;BME280;7210;51.502;10.722;2023-03-12T09:07:21;98931.16;;;3.09;95.86
14253;BME280;7210;51.502;10.722;2023-03-12T09:09:49;98938.66;;;3.25;95.56
14253;BME280;7210;51.502;10.722;2023-03-12T09:12:16;98929.84;;;3.39;94.72
14253;BME280;7210;51.502;10.722;2023-03-12T09:14:43;98926.28;;;3.53;94.13
14253;BME280;7210;51.502;10.722;2023-03-12T09:17:15;98927.09;;;3.73;93.55
14253;BME280;7210;51.502;10.722;2023-03-12T09:19:44;98913.22;;;3.79;92.73
14253;BME280;7210;51.502;10.722;2023-03-12T09:22:11;98904.78;;;3.90;92.18
14253;BME280;7210;51.502;10.722;2023-03-12T09:24:38;98883.66;;;3.98;90.97
14253;BME280;7210;51.502;10.722;2023-03-12T09:27:05;98844.88;;;3.88;90.17
14253;BME280;7210;51.502;10.722;2023-03-12T09:29:33;98834.59;;;3.93;89.54
14253;BME280;7210;51.502;10.722;2023-03-12T09:32:01;98836.81;;;4.03;89.21
14253;BME280;7210;51.502;10.722;2023-03-12T09:34:28;98846.25;;;4.17;88.96
14253;BME280;7210;51.502;10.722;2023-03-12T09:36:58;98842.63;;;4.18;88.69
14253;BME280;7210;51.502;10.722;2023-03-12T09:39:25;98816.88;;;4.15;88.23
14253;BME280;7210;51.502;10.722;2023-03-12T09:41:52;98800.19;;;4.16;87.92
14253;BME280;7210;51.502;10.722;2023-03-12T09:44:31;98773.81;;;4.11;87.14
14253;BME280;7210;51.502;10.722;2023-03-12T09:47:07;98769.03;;;4.08;86.75
14253;BME280;7210;51.502;10.722;2023-03-12T09:49:42;98763.78;;;4.08;86.46
14253;BME280;7210;51.502;10.722;2023-03-12T09:52:23;98770.41;;;4.10;86.34
14253;BME280;7210;51.502;10.722;2023-03-12T09:54:57;98746.06;;;4.10;85.99
14253;BME280;7210;51.502;10.722;2023-03-12T09:57:28;98755.31;;;4.12;86.17
14253;BME280;7210;51.502;10.722;2023-03-12T09:59:56;98793.13;;;4.23;86.23
14253;BME280;7210;51.502;10.722;2023-03-12T10:02:53;98809.53;;;4.43;86.15
14253;BME280;7210;51.502;10.722;2023-03-12T10:05:31;98823.38;;;4.63;85.89
14253;BME280;7210;51.502;10.722;2023-03-12T10:08:07;98791.94;;;4.63;85.18
14253;BME280;7210;51.502;10.722;2023-03-12T10:10:55;98765.53;;;4.71;84.02
14253;BME280;7210;51.502;10.722;2023-03-12T10:13:55;98742.19;;;4.69;83.91
14253;BME280;7210;51.502;10.722;2023-03-12T10:16:46;98722.25;;;4.68;83.24
14253;BME280;7210;51.502;10.722;2023-03-12T10:19:36;98709.34;;;4.73;82.78
14253;BME280;7210;51.502;10.722;2023-03-12T10:22:15;98638.88;;;4.72;81.45
14253;BME280;7210;51.502;10.722;2023-03-12T10:24:59;98600.84;;;4.69;80.75
14253;BME280;7210;51.502;10.722;2023-03-12T10:27:34;98627.06;;;4.63;81.36
14253;BME280;7210;51.502;10.722;2023-03-12T10:30:14;98651.50;;;4.81;81.16
14253;BME280;7210;51.502;10.722;2023-03-12T10:32:47;98682.00;;;4.94;81.23
14253;BME280;7210;51.502;10.722;2023-03-12T10:35:18;98669.44;;;5.02;80.62
14253;BME280;7210;51.502;10.722;2023-03-12T10:37:54;98670.16;;;5.16;80.59
14253;BME280;7210;51.502;10.722;2023-03-12T10:40:27;98680.50;;;5.29;80.43
14253;BME280;7210;51.502;10.722;2023-03-12T10:42:55;98686.47;;;5.36;80.22
14253;BME280;7210;51.502;10.722;2023-03-12T10:45:30;98699.09;;;5.45;80.18
14253;BME280;7210;51.502;10.722;2023-03-12T10:48:03;98632.09;;;5.31;79.54
14253;BME280;7210;51.502;10.722;2023-03-12T10:50:34;98616.47;;;5.25;79.39
14253;BME280;7210;51.502;10.722;2023-03-12T10:53:19;98649.78;;;5.36;79.59
14253;BME280;7210;51.502;10.722;2023-03-12T10:56:06;98616.09;;;5.39;78.89
14253;BME280;7210;51.502;10.722;2023-03-12T10:58:37;98585.88;;;5.37;78.45
14253;BME280;7210;51.502;10.722;2023-03-12T11:01:15;98545.66;;;5.13;78.00
14253;BME280;7210;51.502;10.722;2023-03-12T11:03:45;98551.38;;;5.04;78.51
14253;BME280;7210;51.502;10.722;2023-03-12T11:06:21;98593.59;;;5.14;78.80
14253;BME280;7210;51.502;10.722;2023-03-12T11:09:04;98610.03;;;5.21;78.44
14253;BME280;7210;51.502;10.722;2023-03-12T11:11:35;98584.41;;;5.05;78.46
14253;BME280;7210;51.502;10.722;2023-03-12T11:14:15;98576.09;;;4.90;78.89
14253;BME280;7210;51.502;10.722;2023-03-12T11:16:43;98615.63;;;4.82;79.64
14253;BME280;7210;51.502;10.722;2023-03-12T11:19:13;98672.47;;;4.75;80.30
14253;BME280;7210;51.502;10.722;2023-03-12T11:21:55;98707.13;;;4.77;80.50
14253;BME280;7210;51.502;10.722;2023-03-12T11:24:28;98736.31;;;4.74;81.06
14253;BME280;7210;51.502;10.722;2023-03-12T11:27:03;98745.63;;;4.70;80.91
14253;BME280;7210;51.502;10.722;2023-03-12T11:29:35;98754.69;;;4.61;81.56
14253;BME280;7210;51.502;10.722;2023-03-12T11:32:14;98774.91;;;4.47;82.40
14253;BME280;7210;51.502;10.722;2023-03-12T11:34:43;98817.97;;;4.45;83.08
14253;BME280;7210;51.502;10.722;2023-03-12T11:37:20;98861.88;;;4.43;83.31
14253;BME280;7210;51.502;10.722;2023-03-12T11:40:07;98894.91;;;4.31;84.49
14253;BME280;7210;51.502;10.722;2023-03-12T11:43:00;98947.81;;;4.46;85.09
14253;BME280;7210;51.502;10.722;2023-03-12T11:45:46;98936.34;;;4.40;85.16
14253;BME280;7210;51.502;10.722;2023-03-12T11:48:27;98924.69;;;4.17;85.25
14253;BME280;7210;51.502;10.722;2023-03-12T11:51:16;98954.28;;;4.11;85.85
14253;BME280;7210;51.502;10.722;2023-03-12T11:54:17;98971.97;;;4.02;86.25
14253;BME280;7210;51.502;10.722;2023-03-12T11:56:53;98979.81;;;3.96;86.97
14253;BME280;7210;51.502;10.722;2023-03-12T11:59:42;99020.06;;;4.08;87.32
14253;BME280;7210;51.502;10.722;2023-03-12T12:02:36;99036.75;;;4.13;87.76
14253;BME280;7210;51.502;10.722;2023-03-12T12:05:21;99025.06;;;4.03;87.96
14253;BME280;7210;51.502;10.722;2023-03-12T12:08:10;99024.25;;;3.96;88.53
14253;BME280;7210;51.502;10.722;2023-03-12T12:10:54;99040.94;;;3.95;88.83
14253;BME280;7210;51.502;10.722;2023-03-12T12:13:32;99067.50;;;4.05;89.22
14253;BME280;7210;51.502;10.722;2023-03-12T12:16:23;99080.41;;;4.13;89.48
14253;BME280;7210;51.502;10.722;2023-03-12T12:19:09;99071.34;;;4.09;89.67
14253;BME280;7210;51.502;10.722;2023-03-12T12:21:59;99074.78;;;4.16;90.00
14253;BME280;7210;51.502;10.722;2023-03-12T12:24:58;99073.19;;;4.15;90.36
14253;BME280;7210;51.502;10.722;2023-03-12T12:27:39;99062.69;;;4.02;90.63
14253;BME280;7210;51.502;10.722;2023-03-12T12:30:17;99078.19;;;4.03;91.03
14253;BME280;7210;51.502;10.722;2023-03-12T12:33:11;99092.47;;;4.01;91.77
14253;BME280;7210;51.502;10.722;2023-03-12T12:35:53;99096.50;;;4.10;91.91
14253;BME280;7210;51.502;10.722;2023-03-12T12:38:26;99092.88;;;4.11;91.93
14253;BME280;7210;51.502;10.722;2023-03-12T12:41:03;99103.94;;;4.13;92.38
14253;BME280;7210;51.502;10.722;2023-03-12T12:43:38;99093.88;;;4.10;92.75
14253;BME280;7210;51.502;10.722;2023-03-12T12:46:09;99104.56;;;4.21;93.09
14253;BME280;7210;51.502;10.722;2023-03-12T12:48:43;99116.66;;;4.29;93.06
14253;BME280;7210;51.502;10.722;2023-03-12T12:51:14;99111.22;;;4.37;93.28
14253;BME280;7210;51.502;10.722;2023-03-12T12:53:48;99107.00;;;4.36;93.32
14253;BME280;7210;51.502;10.722;2023-03-12T12:56:26;99115.28;;;4.46;93.56
14253;BME280;7210;51.502;10.722;2023-03-12T12:59:28;99118.28;;;4.43;93.71
14253;BME280;7210;51.502;10.722;2023-03-12T13:01:58;99117.50;;;4.42;93.86
14253;BME280;7210;51.502;10.722;2023-03-12T13:04:33;99115.50;;;4.38;94.12
14253;BME280;7210;51.502;10.722;2023-03-12T13:07:33;99129.16;;;4.40;93.90
14253;BME280;7210;51.502;10.722;2023-03-12T13:10:06;99116.06;;;4.33;94.07
14253;BME280;7210;51.502;10.722;2023-03-12T13:12:55;99107.41;;;4.26;94.48
14253;BME280;7210;51.502;10.722;2023-03-12T13:15:35;99103.38;;;4.24;94.71
14253;BME280;7210;51.502;10.722;2023-03-12T13:18:17;99100.13;;;4.22;94.79
14253;BME280;7210;51.502;10.722;2023-03-12T13:21:05;99087.03;;;4.09;94.98
14253;BME280;7210;51.502;10.722;2023-03-12T13:23:42;99086.81;;;4.04;95.26